Time;durP1;ratioP1;P1;durP2;ratioP2;P2;SDS_P1;SDS_P2;PMS_P1;PMS_P2;Temp;Humidity;BMP_temperature;BMP_pressure;BME280_temperature;BME280_humidity;BME280_pressure;Samples;Min_cycle;Max_cycle;Signal;HPM_P1;HPM_P2
2020/12/01 00:00:53;;;;;;;91.50;87.33;;;;;;;;;;5019839;28;20184;-71
2020/12/01 00:03:21;;;;;;;90.13;85.83;;;;;;;;;;5022152;28;20249;-72
2020/12/01 00:05:47;;;;;;;147.63;141.03;;;;;;;;;;5020294;28;20191;-72
2020/12/01 00:08:14;;;;;;;129.30;123.43;;;;;;;;;;5020208;28;20176;-71
2020/12/01 00:10:41;;;;;;;138.10;130.50;;;;;;;;;;5020556;28;20294;-69
2020/12/01 00:13:07;;;;;;;150.50;142.63;;;;;;;;;;5020721;28;20888;-71
2020/12/01 00:15:34;;;;;;;148.23;141.47;;;;;;;;;;5014845;28;20187;-70
2020/12/01 00:18:01;;;;;;;139.50;132.27;;;;;;;;;;5020739;28;20184;-70
2020/12/01 00:20:27;;;;;;;151.37;144.33;;;;;;;;;;5018065;28;20274;-71
2020/12/01 00:22:55;;;;;;;149.30;142.40;;;;;;;;;;5015427;28;20897;-69
2020/12/01 00:25:24;;;;;;;146.27;139.17;;;;;;;;;;5015849;28;20484;-71
2020/12/01 00:27:51;;;;;;;188.27;178.87;;;;;;;;;;5017616;28;20223;-70
2020/12/01 00:30:22;;;;;;;130.63;124.40;;;;;;;;;;5020441;28;20194;-70
2020/12/01 00:32:49;;;;;;;192.77;183.80;;;;;;;;;;5017706;28;20191;-70
2020/12/01 00:35:17;;;;;;;98.60;94.17;;;;;;;;;;5017864;28;20772;-69
2020/12/01 00:37:43;;;;;;;167.90;159.47;;;;;;;;;;5018470;28;20186;-72
2020/12/01 00:40:10;;;;;;;230.27;219.50;;;;;;;;;;5019147;28;20292;-70
2020/12/01 00:42:37;;;;;;;131.27;123.50;;;;;;;;;;5016634;28;20235;-69
2020/12/01 00:45:04;;;;;;;221.57;210.43;;;;;;;;;;5016557;28;20682;-69
2020/12/01 00:47:31;;;;;;;167.13;159.90;;;;;;;;;;5020835;28;20272;-70
2020/12/01 00:49:57;;;;;;;90.43;86.43;;;;;;;;;;5014887;28;20192;-70
2020/12/01 00:52:24;;;;;;;133.70;127.33;;;;;;;;;;5018232;28;20305;-69
2020/12/01 00:54:52;;;;;;;269.03;255.80;;;;;;;;;;5022142;28;20330;-69
2020/12/01 00:57:19;;;;;;;210.00;200.13;;;;;;;;;;5019242;28;20191;-69
2020/12/01 00:59:46;;;;;;;121.77;116.37;;;;;;;;;;5021860;28;20196;-69
2020/12/01 01:02:12;;;;;;;219.53;208.87;;;;;;;;;;5020708;28;20239;-69
2020/12/01 01:04:39;;;;;;;284.53;269.33;;;;;;;;;;5019486;28;20291;-68
2020/12/01 01:07:05;;;;;;;186.87;178.27;;;;;;;;;;5021753;28;20191;-69
2020/12/01 01:09:32;;;;;;;285.50;271.33;;;;;;;;;;5021150;28;20211;-68
2020/12/01 01:11:59;;;;;;;219.03;208.80;;;;;;;;;;5020369;28;20183;-69
2020/12/01 01:14:26;;;;;;;314.07;297.20;;;;;;;;;;5013435;28;20290;-69
2020/12/01 01:16:52;;;;;;;264.00;250.83;;;;;;;;;;5019781;28;20199;-70
2020/12/01 01:19:19;;;;;;;177.07;169.00;;;;;;;;;;5021329;28;20186;-69
2020/12/01 01:21:46;;;;;;;216.43;206.40;;;;;;;;;;5019977;28;20239;-70
2020/12/01 01:24:15;;;;;;;222.90;212.30;;;;;;;;;;5021282;28;20190;-70
2020/12/01 01:26:46;;;;;;;177.53;168.67;;;;;;;;;;5018911;28;20199;-69
2020/12/01 01:29:13;;;;;;;240.33;229.10;;;;;;;;;;5020387;28;20194;-69
2020/12/01 01:31:39;;;;;;;145.17;138.83;;;;;;;;;;5019747;28;20187;-69
2020/12/01 01:34:06;;;;;;;136.23;130.27;;;;;;;;;;5016869;28;20369;-69
2020/12/01 01:36:34;;;;;;;241.33;229.57;;;;;;;;;;5012661;28;20186;-69
2020/12/01 01:39:01;;;;;;;222.70;212.13;;;;;;;;;;5016807;28;20287;-69
2020/12/01 01:41:31;;;;;;;168.13;161.10;;;;;;;;;;5019296;28;21217;-69
2020/12/01 01:43:58;;;;;;;207.13;197.23;;;;;;;;;;5020041;28;20199;-69
2020/12/01 01:46:37;;;;;;;376.20;355.50;;;;;;;;;;5018723;28;20221;-70
2020/12/01 01:49:11;;;;;;;358.27;339.83;;;;;;;;;;5026662;28;20194;-69
2020/12/01 01:51:40;;;;;;;253.80;242.63;;;;;;;;;;5020745;28;20202;-70
2020/12/01 01:54:07;;;;;;;312.80;298.03;;;;;;;;;;5018705;28;20194;-69
2020/12/01 01:56:36;;;;;;;244.67;233.33;;;;;;;;;;5018877;28;20648;-69
2020/12/01 01:59:03;;;;;;;367.60;348.83;;;;;;;;;;5018185;28;20191;-69
2020/12/01 02:01:30;;;;;;;449.30;425.40;;;;;;;;;;5019877;28;20765;-70
2020/12/01 02:03:58;;;;;;;309.93;294.70;;;;;;;;;;5020657;28;20222;-69
2020/12/01 02:06:27;;;;;;;386.90;367.17;;;;;;;;;;5018425;28;20176;-69
2020/12/01 02:08:58;;;;;;;346.03;329.27;;;;;;;;;;5011742;28;20176;-69
2020/12/01 02:11:25;;;;;;;383.37;365.27;;;;;;;;;;5019072;28;20579;-69
2020/12/01 02:14:06;;;;;;;367.77;350.60;;;;;;;;;;5018080;28;20219;-70
2020/12/01 02:16:37;;;;;;;353.30;336.13;;;;;;;;;;5015009;28;20193;-69
2020/12/01 02:19:05;;;;;;;286.13;272.33;;;;;;;;;;5019857;28;20237;-69
2020/12/01 02:21:39;;;;;;;426.70;403.83;;;;;;;;;;5020614;28;20292;-69
2020/12/01 02:24:10;;;;;;;364.90;348.10;;;;;;;;;;5015779;28;20205;-70
2020/12/01 02:26:37;;;;;;;401.10;380.57;;;;;;;;;;5018497;28;20206;-69
2020/12/01 02:29:06;;;;;;;428.87;406.37;;;;;;;;;;5019459;28;20308;-70
2020/12/01 02:31:32;;;;;;;281.87;268.23;;;;;;;;;;5014972;28;20184;-69
2020/12/01 02:33:59;;;;;;;376.53;355.83;;;;;;;;;;5017132;28;20190;-70
2020/12/01 02:36:26;;;;;;;294.83;280.70;;;;;;;;;;5018839;28;20230;-69
2020/12/01 02:38:52;;;;;;;313.13;298.27;;;;;;;;;;5018075;28;20961;-69
2020/12/01 02:41:19;;;;;;;414.43;393.83;;;;;;;;;;5015750;28;20218;-69
2020/12/01 02:43:45;;;;;;;445.73;421.27;;;;;;;;;;5015554;28;20264;-70
2020/12/01 02:46:12;;;;;;;380.40;360.60;;;;;;;;;;5015736;28;20207;-70
2020/12/01 02:48:38;;;;;;;367.03;349.37;;;;;;;;;;5022407;28;20202;-69
2020/12/01 02:51:05;;;;;;;362.93;344.30;;;;;;;;;;5021413;28;20193;-70
2020/12/01 02:53:32;;;;;;;364.70;345.47;;;;;;;;;;5014586;28;20187;-69
2020/12/01 02:55:58;;;;;;;336.33;320.53;;;;;;;;;;5023282;28;20352;-71
2020/12/01 02:58:25;;;;;;;445.20;420.73;;;;;;;;;;5023104;28;20194;-69
2020/12/01 03:00:52;;;;;;;352.23;336.13;;;;;;;;;;5021754;28;20186;-69
2020/12/01 03:03:18;;;;;;;318.70;304.33;;;;;;;;;;5023800;28;20251;-69
2020/12/01 03:05:45;;;;;;;262.70;250.73;;;;;;;;;;5022109;28;20186;-69
2020/12/01 03:08:11;;;;;;;430.93;407.27;;;;;;;;;;5021781;28;20187;-69
2020/12/01 03:10:38;;;;;;;309.73;293.90;;;;;;;;;;5017666;28;20320;-69
2020/12/01 03:13:05;;;;;;;373.03;354.47;;;;;;;;;;5019878;28;20178;-69
2020/12/01 03:15:31;;;;;;;349.93;332.67;;;;;;;;;;5020260;28;20285;-70
2020/12/01 03:17:58;;;;;;;355.83;337.60;;;;;;;;;;5024422;28;20182;-70
2020/12/01 03:20:25;;;;;;;330.50;313.77;;;;;;;;;;5016837;28;20266;-69
2020/12/01 03:22:51;;;;;;;390.50;369.97;;;;;;;;;;5024756;28;20227;-70
2020/12/01 03:25:18;;;;;;;330.17;312.67;;;;;;;;;;5022201;28;20253;-71
2020/12/01 03:27:44;;;;;;;404.53;382.23;;;;;;;;;;5021717;28;20629;-69
2020/12/01 03:30:11;;;;;;;291.97;277.80;;;;;;;;;;5022486;28;20199;-69
2020/12/01 03:32:38;;;;;;;301.73;287.30;;;;;;;;;;5022010;28;20187;-70
2020/12/01 03:35:05;;;;;;;352.77;335.70;;;;;;;;;;5022286;28;20323;-69
2020/12/01 03:37:31;;;;;;;318.00;301.53;;;;;;;;;;5022452;28;20194;-70
2020/12/01 03:39:58;;;;;;;293.33;279.23;;;;;;;;;;5027138;28;20225;-70
2020/12/01 03:42:24;;;;;;;324.73;307.20;;;;;;;;;;5021356;28;20238;-71
2020/12/01 03:44:51;;;;;;;305.30;290.17;;;;;;;;;;5020625;28;20209;-70
2020/12/01 03:47:17;;;;;;;276.97;262.90;;;;;;;;;;5020012;28;20196;-70
2020/12/01 03:49:44;;;;;;;350.93;333.83;;;;;;;;;;5021152;28;20360;-70
2020/12/01 03:52:11;;;;;;;333.20;317.23;;;;;;;;;;5021602;28;20876;-70
2020/12/01 03:54:37;;;;;;;474.93;447.07;;;;;;;;;;5020151;28;20190;-69
2020/12/01 03:57:04;;;;;;;341.57;324.87;;;;;;;;;;5017632;28;20360;-70
2020/12/01 03:59:31;;;;;;;367.90;348.90;;;;;;;;;;5021869;28;20185;-70
2020/12/01 04:01:57;;;;;;;372.03;352.57;;;;;;;;;;5021600;28;20279;-69
2020/12/01 04:04:28;;;;;;;330.30;313.40;;;;;;;;;;5019026;28;20215;-70
2020/12/01 13:53:08;;;;;;;450.07;425.60;;;;;;;;;;5113429;27;20595;-67
2020/12/01 13:55:34;;;;;;;341.43;323.13;;;;;;;;;;5114842;28;20193;-66
2020/12/01 13:58:01;;;;;;;238.50;225.80;;;;;;;;;;5117021;27;21015;-69
2020/12/01 14:00:29;;;;;;;177.37;168.57;;;;;;;;;;5114646;27;20182;-70
2020/12/01 14:02:55;;;;;;;144.67;137.83;;;;;;;;;;5105955;27;20174;-69
2020/12/01 14:05:24;;;;;;;208.83;198.27;;;;;;;;;;5109728;27;20275;-70
2020/12/01 14:07:52;;;;;;;169.80;161.37;;;;;;;;;;5114394;27;20189;-70
2020/12/01 14:10:19;;;;;;;120.07;114.07;;;;;;;;;;5117117;27;20208;-69
2020/12/01 14:12:46;;;;;;;210.17;200.07;;;;;;;;;;5115244;27;20189;-69
2020/12/01 14:15:13;;;;;;;155.93;148.87;;;;;;;;;;5109928;28;20283;-68
2020/12/01 14:17:40;;;;;;;195.63;185.47;;;;;;;;;;5112514;27;20615;-67
2020/12/01 14:20:12;;;;;;;146.50;139.80;;;;;;;;;;5114303;27;20648;-69
2020/12/01 14:22:39;;;;;;;142.63;135.83;;;;;;;;;;5114808;27;20177;-67
2020/12/01 14:25:07;;;;;;;159.83;152.07;;;;;;;;;;5115377;27;20746;-70
2020/12/01 14:27:33;;;;;;;132.17;126.03;;;;;;;;;;5115198;27;20181;-69
2020/12/01 14:30:01;;;;;;;86.83;83.27;;;;;;;;;;5118254;27;20185;-69
2020/12/01 14:32:28;;;;;;;135.53;129.30;;;;;;;;;;5113955;27;20251;-69
2020/12/01 14:34:54;;;;;;;148.50;141.67;;;;;;;;;;5112780;27;20185;-69
2020/12/01 14:37:22;;;;;;;113.87;108.83;;;;;;;;;;5115403;27;20181;-70
2020/12/01 14:39:50;;;;;;;148.80;141.97;;;;;;;;;;5115658;27;20176;-68
2020/12/01 14:42:18;;;;;;;123.97;117.90;;;;;;;;;;5110948;27;20181;-72
2020/12/01 14:44:45;;;;;;;132.37;126.37;;;;;;;;;;5115977;27;20189;-70
2020/12/01 14:47:19;;;;;;;136.80;130.50;;;;;;;;;;5104661;27;20176;-71
2020/12/01 14:50:06;;;;;;;211.33;200.67;;;;;;;;;;5106948;28;20469;-71
2020/12/01 14:52:33;;;;;;;114.40;109.23;;;;;;;;;;5090588;28;20606;-71
2020/12/01 14:55:03;;;;;;;117.40;112.03;;;;;;;;;;5104315;28;20190;-70
2020/12/01 14:57:35;;;;;;;162.73;155.13;;;;;;;;;;5092108;28;20190;-69
2020/12/01 15:00:05;;;;;;;188.27;179.50;;;;;;;;;;5104466;27;20188;-70
2020/12/01 15:02:40;;;;;;;221.73;211.37;;;;;;;;;;5088364;28;20192;-70
2020/12/01 15:05:25;;;;;;;243.47;231.83;;;;;;;;;;5089121;27;20183;-71
2020/12/01 15:08:11;;;;;;;242.97;232.03;;;;;;;;;;5093158;27;20184;-71
2020/12/01 15:10:56;;;;;;;230.23;219.97;;;;;;;;;;5097798;28;20670;-67
2020/12/01 15:13:26;;;;;;;190.53;181.50;;;;;;;;;;5094424;27;20675;-69
2020/12/01 15:15:53;;;;;;;212.93;203.23;;;;;;;;;;5104664;27;20470;-69
2020/12/01 15:18:20;;;;;;;175.47;168.07;;;;;;;;;;5098060;27;20184;-71
2020/12/01 15:20:47;;;;;;;277.93;264.83;;;;;;;;;;5094534;27;20184;-69
2020/12/01 15:23:26;;;;;;;169.87;162.73;;;;;;;;;;5090095;28;20377;-71
2020/12/01 15:25:54;;;;;;;167.43;160.00;;;;;;;;;;5102129;27;20187;-71
2020/12/01 15:28:37;;;;;;;219.03;209.47;;;;;;;;;;5096648;27;20194;-68
2020/12/01 15:31:04;;;;;;;289.40;275.00;;;;;;;;;;5099154;27;20297;-68
2020/12/01 15:33:32;;;;;;;222.90;212.50;;;;;;;;;;5094789;27;20573;-68
2020/12/01 15:36:00;;;;;;;214.17;204.43;;;;;;;;;;5083098;28;20195;-69
2020/12/01 15:38:29;;;;;;;181.17;173.17;;;;;;;;;;5100731;27;20277;-68
2020/12/01 15:41:06;;;;;;;219.90;209.93;;;;;;;;;;5110422;27;20544;-67
2020/12/01 15:43:32;;;;;;;135.63;129.90;;;;;;;;;;5097232;27;20600;-69
2020/12/01 15:46:02;;;;;;;230.20;219.20;;;;;;;;;;5102317;27;20680;-69
2020/12/01 15:48:29;;;;;;;290.77;276.93;;;;;;;;;;5091347;28;20190;-68
2020/12/01 15:51:05;;;;;;;280.50;266.40;;;;;;;;;;5082382;28;20223;-71
2020/12/01 15:53:34;;;;;;;171.77;163.83;;;;;;;;;;5097723;28;20181;-70
2020/12/01 15:56:21;;;;;;;271.93;257.70;;;;;;;;;;5102724;27;20708;-71
2020/12/01 15:59:06;;;;;;;131.00;125.07;;;;;;;;;;5063834;27;20233;-71
2020/12/01 16:01:47;;;;;;;188.40;180.17;;;;;;;;;;5089102;28;20190;-70
2020/12/01 16:04:16;;;;;;;254.27;242.07;;;;;;;;;;5100755;27;20755;-69
2020/12/01 16:06:43;;;;;;;251.17;239.00;;;;;;;;;;5089994;27;20178;-71
2020/12/01 16:09:22;;;;;;;257.93;246.27;;;;;;;;;;5093410;27;20174;-70
2020/12/01 16:11:55;;;;;;;244.50;233.00;;;;;;;;;;5093478;27;20248;-69
2020/12/01 16:14:40;;;;;;;288.47;274.70;;;;;;;;;;5093055;28;20186;-70
2020/12/01 16:17:19;;;;;;;133.50;127.93;;;;;;;;;;5087156;28;20182;-71
2020/12/01 16:20:06;;;;;;;245.30;234.37;;;;;;;;;;5093438;27;20282;-70
2020/12/01 16:22:32;;;;;;;125.93;120.67;;;;;;;;;;5052214;28;20568;-70
2020/12/01 16:24:59;;;;;;;107.70;103.03;;;;;;;;;;5098501;28;20785;-70
2020/12/01 16:27:31;;;;;;;188.57;180.27;;;;;;;;;;5106305;27;20498;-69
2020/12/01 16:30:01;;;;;;;74.83;71.67;;;;;;;;;;5095494;27;20268;-69
2020/12/01 16:32:29;;;;;;;198.13;183.10;;;;;;;;;;5097251;27;20276;-70
2020/12/01 16:34:59;;;;;;;124.17;118.73;;;;;;;;;;5082143;28;20277;-70
2020/12/01 16:37:32;;;;;;;183.90;175.37;;;;;;;;;;5098055;27;20287;-69
2020/12/01 16:40:08;;;;;;;86.40;82.83;;;;;;;;;;5099012;27;20273;-71
2020/12/01 16:42:37;;;;;;;144.80;137.90;;;;;;;;;;5105620;27;20188;-71
2020/12/01 16:45:09;;;;;;;180.43;171.90;;;;;;;;;;5110300;27;20235;-69
2020/12/01 16:47:36;;;;;;;225.93;214.63;;;;;;;;;;5083893;28;20232;-69
2020/12/01 16:50:12;;;;;;;169.87;161.93;;;;;;;;;;5102530;27;20273;-70
2020/12/01 16:52:39;;;;;;;154.83;148.07;;;;;;;;;;5095718;27;20235;-70
2020/12/01 16:55:05;;;;;;;166.70;159.13;;;;;;;;;;5097851;27;20257;-69
2020/12/01 16:57:38;;;;;;;148.77;142.53;;;;;;;;;;5101892;28;20170;-69
2020/12/01 17:00:23;;;;;;;114.97;110.03;;;;;;;;;;5096218;28;20213;-69
2020/12/01 17:02:52;;;;;;;203.60;194.60;;;;;;;;;;5102537;28;20184;-69
2020/12/01 17:05:26;;;;;;;320.37;303.93;;;;;;;;;;5102686;28;20182;-69
2020/12/01 17:07:53;;;;;;;278.57;265.33;;;;;;;;;;5101863;28;20178;-69
2020/12/01 17:10:20;;;;;;;264.30;251.73;;;;;;;;;;5098928;28;20181;-70
2020/12/01 17:13:05;;;;;;;300.30;286.43;;;;;;;;;;5088463;28;20192;-70
2020/12/01 17:15:35;;;;;;;147.20;140.80;;;;;;;;;;5088040;28;20179;-69
2020/12/01 17:18:02;;;;;;;114.03;109.23;;;;;;;;;;5092507;28;20295;-69
2020/12/01 17:20:29;;;;;;;145.03;138.63;;;;;;;;;;5095352;28;20290;-70
2020/12/01 17:22:56;;;;;;;135.70;129.70;;;;;;;;;;5096380;28;20462;-69
2020/12/01 17:25:25;;;;;;;256.10;243.63;;;;;;;;;;5092726;28;20180;-69
2020/12/01 17:28:02;;;;;;;211.30;200.77;;;;;;;;;;5095705;28;20178;-70
2020/12/01 17:30:43;;;;;;;425.30;398.50;;;;;;;;;;5093989;28;20173;-69
2020/12/01 17:33:20;;;;;;;189.40;181.00;;;;;;;;;;5093855;28;20266;-69
2020/12/01 17:36:02;;;;;;;264.27;250.30;;;;;;;;;;5094699;28;20790;-69
2020/12/01 17:38:35;;;;;;;217.23;206.40;;;;;;;;;;5091980;28;20206;-70
2020/12/01 17:41:17;;;;;;;111.93;106.97;;;;;;;;;;5097985;28;21078;-68
2020/12/01 17:43:51;;;;;;;159.67;152.13;;;;;;;;;;5086706;28;20205;-68
2020/12/01 17:46:22;;;;;;;175.23;166.67;;;;;;;;;;5096620;28;20247;-69
2020/12/01 17:48:52;;;;;;;160.70;153.63;;;;;;;;;;5095406;28;20997;-69
2020/12/01 17:51:47;;;;;;;231.87;220.63;;;;;;;;;;5094984;28;20264;-68
2020/12/01 17:54:24;;;;;;;215.57;205.93;;;;;;;;;;5084077;28;20290;-70
2020/12/01 17:56:52;;;;;;;243.93;231.23;;;;;;;;;;5093379;28;20186;-69
2020/12/01 17:59:21;;;;;;;190.70;182.50;;;;;;;;;;5091551;28;20182;-69
2020/12/01 18:01:48;;;;;;;260.87;247.43;;;;;;;;;;5088073;28;20189;-69
2020/12/01 18:04:16;;;;;;;151.83;144.97;;;;;;;;;;5081351;28;20242;-69
2020/12/01 18:06:43;;;;;;;252.80;240.20;;;;;;;;;;5087294;28;20187;-69
2020/12/01 18:09:12;;;;;;;140.03;133.83;;;;;;;;;;5087702;28;20756;-68
2020/12/01 18:11:50;;;;;;;176.63;168.97;;;;;;;;;;5090586;28;21167;-69
2020/12/01 18:14:29;;;;;;;173.83;165.67;;;;;;;;;;5084016;28;20294;-70
2020/12/01 18:17:14;;;;;;;191.47;183.70;;;;;;;;;;5081049;28;20200;-68
2020/12/01 18:19:40;;;;;;;220.57;210.60;;;;;;;;;;5086669;28;20178;-69
2020/12/01 18:22:18;;;;;;;199.30;189.57;;;;;;;;;;5100229;28;20185;-69
2020/12/01 18:24:58;;;;;;;97.63;93.47;;;;;;;;;;5099363;28;20180;-69
2020/12/01 18:27:30;;;;;;;116.20;111.23;;;;;;;;;;5081054;28;20194;-70
2020/12/01 18:30:02;;;;;;;159.87;152.37;;;;;;;;;;5084469;28;20203;-70
2020/12/01 18:32:38;;;;;;;183.83;175.27;;;;;;;;;;5083691;28;20220;-68
2020/12/01 18:35:15;;;;;;;204.37;194.90;;;;;;;;;;5084344;28;20504;-68
2020/12/01 18:37:43;;;;;;;177.60;169.20;;;;;;;;;;5084522;28;20419;-68
2020/12/01 18:40:12;;;;;;;99.10;94.80;;;;;;;;;;5083660;28;20182;-68
2020/12/01 18:42:42;;;;;;;329.27;311.93;;;;;;;;;;5084036;28;20687;-69
2020/12/01 18:45:16;;;;;;;217.20;207.07;;;;;;;;;;5086541;28;20255;-68
2020/12/01 18:47:43;;;;;;;119.40;114.60;;;;;;;;;;5096719;28;20177;-70
2020/12/01 18:50:10;;;;;;;193.77;184.50;;;;;;;;;;5084062;28;20210;-68
2020/12/01 18:52:36;;;;;;;117.53;112.23;;;;;;;;;;5088986;28;20239;-69
2020/12/01 18:55:03;;;;;;;139.67;133.67;;;;;;;;;;5094896;28;20194;-68
2020/12/01 18:57:30;;;;;;;175.43;167.43;;;;;;;;;;5101413;27;20193;-68
2020/12/01 18:59:56;;;;;;;348.67;330.50;;;;;;;;;;5097127;28;20611;-70
2020/12/01 19:02:23;;;;;;;203.70;194.33;;;;;;;;;;5091028;28;20606;-67
2020/12/01 19:04:50;;;;;;;252.40;239.53;;;;;;;;;;5083243;28;20187;-68
2020/12/01 19:07:17;;;;;;;355.33;336.80;;;;;;;;;;5083540;28;20642;-69
2020/12/01 19:09:43;;;;;;;283.13;269.53;;;;;;;;;;5082810;28;20269;-68
2020/12/01 19:12:10;;;;;;;186.87;179.20;;;;;;;;;;5094647;28;20233;-68
2020/12/01 19:14:38;;;;;;;312.20;296.50;;;;;;;;;;5096063;28;20192;-68
2020/12/01 19:17:05;;;;;;;437.47;412.90;;;;;;;;;;5093378;28;20194;-70
2020/12/01 19:19:32;;;;;;;260.83;249.40;;;;;;;;;;5089669;28;20182;-69
2020/12/01 19:21:59;;;;;;;368.90;349.37;;;;;;;;;;5098336;28;20186;-69
2020/12/01 19:24:27;;;;;;;217.07;207.47;;;;;;;;;;5096745;28;20301;-69
2020/12/01 19:26:53;;;;;;;331.50;314.73;;;;;;;;;;5094929;28;20190;-69
2020/12/01 19:29:20;;;;;;;311.83;296.80;;;;;;;;;;5092349;28;20260;-69
2020/12/01 19:31:50;;;;;;;332.60;313.97;;;;;;;;;;5095273;27;20282;-69
2020/12/01 19:34:17;;;;;;;229.90;219.50;;;;;;;;;;5092940;28;20206;-70
2020/12/01 19:36:46;;;;;;;234.27;222.63;;;;;;;;;;5092976;28;20182;-69
2020/12/01 19:39:13;;;;;;;209.40;198.80;;;;;;;;;;5093816;28;20209;-69
2020/12/01 19:41:39;;;;;;;268.43;254.97;;;;;;;;;;5099012;28;20182;-69
2020/12/01 19:44:06;;;;;;;194.60;185.53;;;;;;;;;;5090782;28;20233;-70
2020/12/01 19:46:33;;;;;;;197.73;188.17;;;;;;;;;;5095752;28;20183;-69
2020/12/01 19:49:02;;;;;;;274.07;260.87;;;;;;;;;;5094829;27;20181;-69
2020/12/01 19:51:30;;;;;;;219.80;208.93;;;;;;;;;;5094446;28;20588;-69
2020/12/01 19:53:57;;;;;;;202.80;192.63;;;;;;;;;;5096159;28;20189;-67
2020/12/01 19:56:24;;;;;;;259.87;247.20;;;;;;;;;;5097358;28;20649;-68
2020/12/01 19:58:51;;;;;;;239.57;227.17;;;;;;;;;;5095720;28;20824;-68
2020/12/01 20:01:19;;;;;;;233.07;221.50;;;;;;;;;;5100130;28;20916;-69
2020/12/01 20:03:46;;;;;;;260.07;246.33;;;;;;;;;;5096019;28;20710;-69
2020/12/01 20:06:13;;;;;;;167.47;159.83;;;;;;;;;;5096187;28;20190;-69
2020/12/01 20:08:42;;;;;;;181.47;173.03;;;;;;;;;;5092877;28;20444;-69
2020/12/01 20:11:16;;;;;;;161.83;154.67;;;;;;;;;;5096013;28;20221;-69
2020/12/01 20:13:44;;;;;;;286.50;271.87;;;;;;;;;;5098658;28;20242;-69
2020/12/01 20:16:11;;;;;;;260.77;247.00;;;;;;;;;;5094445;28;20180;-68
2020/12/01 20:18:38;;;;;;;226.67;215.63;;;;;;;;;;5095011;28;20421;-69
2020/12/01 20:21:04;;;;;;;278.57;263.77;;;;;;;;;;5094719;28;20646;-68
2020/12/01 20:23:33;;;;;;;250.80;238.73;;;;;;;;;;5098104;28;20182;-69
2020/12/01 20:26:00;;;;;;;159.67;153.27;;;;;;;;;;5095500;28;20652;-69
2020/12/01 20:28:28;;;;;;;286.73;272.77;;;;;;;;;;5098247;27;20190;-69
2020/12/01 20:30:55;;;;;;;325.23;309.33;;;;;;;;;;5094478;28;20233;-69
2020/12/01 20:33:23;;;;;;;347.40;328.90;;;;;;;;;;5093581;28;20186;-69
2020/12/01 20:35:49;;;;;;;328.17;312.67;;;;;;;;;;5090326;28;20174;-69
2020/12/01 20:38:35;;;;;;;361.87;344.10;;;;;;;;;;5090739;28;20177;-69
2020/12/01 20:41:02;;;;;;;283.13;271.27;;;;;;;;;;5086560;28;21038;-69
2020/12/01 20:43:30;;;;;;;378.80;359.17;;;;;;;;;;5091059;28;20186;-70
2020/12/01 20:45:56;;;;;;;355.40;337.10;;;;;;;;;;5094844;28;20226;-70
2020/12/01 20:48:23;;;;;;;335.63;319.03;;;;;;;;;;5092417;28;20186;-68
2020/12/01 20:50:49;;;;;;;389.53;368.07;;;;;;;;;;5088328;28;20206;-70
2020/12/01 20:53:16;;;;;;;398.57;377.27;;;;;;;;;;5080663;28;20200;-70
2020/12/01 20:55:44;;;;;;;334.40;317.20;;;;;;;;;;5094402;28;20201;-68
2020/12/01 20:58:11;;;;;;;397.63;376.60;;;;;;;;;;5094882;28;20205;-69
2020/12/01 21:00:40;;;;;;;250.00;239.37;;;;;;;;;;5094693;28;20594;-70
2020/12/01 21:03:08;;;;;;;386.93;366.83;;;;;;;;;;5097247;28;20659;-70
2020/12/01 21:05:35;;;;;;;246.70;235.77;;;;;;;;;;5094872;28;20201;-69
2020/12/01 21:08:03;;;;;;;353.83;333.73;;;;;;;;;;5095951;28;20636;-70
2020/12/01 21:10:29;;;;;;;319.23;305.03;;;;;;;;;;5094850;28;20597;-69
2020/12/01 21:12:59;;;;;;;335.33;317.60;;;;;;;;;;5097352;28;20180;-68
2020/12/01 21:15:26;;;;;;;319.87;304.37;;;;;;;;;;5091414;28;20170;-69
2020/12/01 21:17:56;;;;;;;326.47;311.70;;;;;;;;;;5095239;27;20651;-72
2020/12/01 21:20:23;;;;;;;245.53;235.00;;;;;;;;;;5088635;28;20176;-72
2020/12/01 21:22:56;;;;;;;233.20;223.50;;;;;;;;;;5087610;28;20178;-72
2020/12/01 21:25:23;;;;;;;329.47;312.40;;;;;;;;;;5095072;28;20182;-72
2020/12/01 21:27:57;;;;;;;244.83;234.37;;;;;;;;;;5094130;28;20177;-72
2020/12/01 21:30:23;;;;;;;233.53;223.93;;;;;;;;;;5091295;28;20182;-72
2020/12/01 21:32:50;;;;;;;239.03;228.53;;;;;;;;;;5084666;28;20228;-73
2020/12/01 21:35:17;;;;;;;236.10;225.47;;;;;;;;;;5088929;28;20970;-75
2020/12/01 21:37:45;;;;;;;315.07;297.13;;;;;;;;;;5095914;28;20640;-73
2020/12/01 21:40:12;;;;;;;243.50;228.17;;;;;;;;;;5089617;28;20208;-72
2020/12/01 21:42:44;;;;;;;216.93;205.03;;;;;;;;;;5088935;28;20190;-73
2020/12/01 21:45:17;;;;;;;89.33;85.40;;;;;;;;;;5090944;28;20193;-73
2020/12/01 21:47:44;;;;;;;86.67;82.87;;;;;;;;;;5091858;28;20174;-72
2020/12/01 21:50:11;;;;;;;252.07;237.17;;;;;;;;;;5090246;28;20182;-71
2020/12/01 21:52:49;;;;;;;96.83;92.00;;;;;;;;;;5089833;28;20252;-71
2020/12/01 21:55:18;;;;;;;174.90;165.37;;;;;;;;;;5099156;28;20181;-74
2020/12/01 21:57:47;;;;;;;197.57;186.37;;;;;;;;;;5093780;28;20265;-73
2020/12/01 22:00:14;;;;;;;86.37;82.63;;;;;;;;;;5092116;28;20246;-70
2020/12/01 22:02:47;;;;;;;269.50;253.23;;;;;;;;;;5087301;28;20243;-73
2020/12/01 22:05:37;;;;;;;201.37;192.47;;;;;;;;;;5087528;28;20186;-73
2020/12/01 22:08:22;;;;;;;129.40;123.60;;;;;;;;;;5092566;28;20201;-71
2020/12/01 22:10:58;;;;;;;139.33;132.53;;;;;;;;;;5090249;28;20181;-72
2020/12/01 22:14:04;;;;;;;304.67;289.63;;;;;;;;;;5093399;28;20185;-72
2020/12/01 22:16:32;;;;;;;198.83;189.73;;;;;;;;;;4996675;28;20996;-72
2020/12/01 22:19:01;;;;;;;214.57;204.37;;;;;;;;;;4994991;28;20181;-70
2020/12/01 22:21:57;;;;;;;169.30;160.37;;;;;;;;;;5044209;28;20186;-71
2020/12/01 22:24:23;;;;;;;146.63;139.90;;;;;;;;;;5077346;28;20529;-72
2020/12/01 22:26:50;;;;;;;135.17;128.63;;;;;;;;;;5096068;28;20169;-72
2020/12/01 22:29:37;;;;;;;166.30;158.30;;;;;;;;;;5099218;28;20635;-71
2020/12/01 22:32:07;;;;;;;130.33;124.07;;;;;;;;;;5093297;28;20313;-71
2020/12/01 22:34:50;;;;;;;268.93;255.40;;;;;;;;;;5097838;27;20195;-71
2020/12/01 22:37:20;;;;;;;229.37;216.97;;;;;;;;;;5097538;27;20220;-71
2020/12/01 22:39:48;;;;;;;221.83;210.20;;;;;;;;;;5098037;27;20668;-70
2020/12/01 22:42:38;;;;;;;165.53;157.77;;;;;;;;;;5095131;28;20192;-70
2020/12/01 22:45:28;;;;;;;237.47;226.10;;;;;;;;;;5062462;27;20190;-71
2020/12/01 22:48:04;;;;;;;247.93;235.80;;;;;;;;;;5097283;28;20188;-72
2020/12/01 22:50:40;;;;;;;228.57;216.63;;;;;;;;;;5092509;28;20194;-71
2020/12/01 22:53:15;;;;;;;205.33;196.07;;;;;;;;;;5045160;28;20669;-71
2020/12/01 22:55:51;;;;;;;245.13;233.20;;;;;;;;;;5045247;28;20218;-72
2020/12/01 22:58:22;;;;;;;315.63;300.47;;;;;;;;;;5043750;28;20214;-72
2020/12/01 23:00:52;;;;;;;289.97;275.47;;;;;;;;;;5046407;28;20703;-72
2020/12/01 23:03:20;;;;;;;150.30;143.60;;;;;;;;;;5054982;28;20179;-72
2020/12/01 23:05:50;;;;;;;154.60;147.83;;;;;;;;;;5047098;28;21004;-73
2020/12/01 23:08:19;;;;;;;282.17;269.53;;;;;;;;;;5050911;28;20266;-71
2020/12/01 23:11:06;;;;;;;281.63;268.83;;;;;;;;;;5050255;28;20186;-72
2020/12/01 23:13:40;;;;;;;195.60;187.17;;;;;;;;;;5056440;28;20584;-72
2020/12/01 23:16:09;;;;;;;287.97;274.77;;;;;;;;;;5056871;28;20525;-71
2020/12/01 23:18:36;;;;;;;218.27;208.40;;;;;;;;;;5058498;28;20252;-72
2020/12/01 23:21:03;;;;;;;163.63;156.10;;;;;;;;;;5054848;28;20190;-72
2020/12/01 23:23:29;;;;;;;250.50;239.57;;;;;;;;;;5047474;28;20659;-72
2020/12/01 23:26:00;;;;;;;296.77;281.90;;;;;;;;;;5051930;28;20280;-72
2020/12/01 23:28:28;;;;;;;240.03;228.90;;;;;;;;;;5051118;28;20184;-73
2020/12/01 23:30:56;;;;;;;241.20;230.63;;;;;;;;;;5048130;28;20210;-73
2020/12/01 23:33:25;;;;;;;288.57;274.90;;;;;;;;;;5055694;28;20212;-72
2020/12/01 23:35:52;;;;;;;211.97;202.10;;;;;;;;;;5051708;28;20289;-72
2020/12/01 23:38:27;;;;;;;254.53;243.00;;;;;;;;;;5049561;28;20185;-73
2020/12/01 23:40:56;;;;;;;247.30;236.10;;;;;;;;;;5053561;28;20198;-72
2020/12/01 23:43:22;;;;;;;218.50;208.63;;;;;;;;;;5046628;28;20187;-73
2020/12/01 23:46:07;;;;;;;247.20;236.00;;;;;;;;;;5050218;28;20232;-73
2020/12/01 23:48:36;;;;;;;200.80;192.13;;;;;;;;;;5050689;28;20610;-72
2020/12/01 23:51:04;;;;;;;278.20;265.43;;;;;;;;;;5057636;28;20777;-73
2020/12/01 23:53:31;;;;;;;445.87;420.77;;;;;;;;;;5092010;28;20189;-72
2020/12/01 23:56:00;;;;;;;317.83;301.97;;;;;;;;;;5100993;28;20806;-72